Time;durP1;ratioP1;P1;durP2;ratioP2;P2;SDS_P1;SDS_P2;PMS_P1;PMS_P2;Temp;Humidity;BMP_temperature;BMP_pressure;BME280_temperature;BME280_humidity;BME280_pressure;Samples;Min_cycle;Max_cycle;Signal;HPM_P1;HPM_P2
2023/09/03 00:00:15;;;;;;;3.85;1.63;;;26.50;50.70;;;;;;5149501;27;45256;-75
2023/09/03 00:02:41;;;;;;;2.47;1.52;;;26.50;50.70;;;;;;5149026;27;45391;-75
2023/09/03 00:05:09;;;;;;;3.03;1.55;;;26.50;50.60;;;;;;5149026;27;45306;-75
2023/09/03 00:07:35;;;;;;;3.67;1.60;;;26.50;50.60;;;;;;5148878;27;45435;-75
2023/09/03 00:10:02;;;;;;;2.05;1.90;;;26.50;50.60;;;;;;5149391;27;45386;-75
2023/09/03 00:12:29;;;;;;;2.08;1.40;;;26.50;50.60;;;;;;5148576;27;46443;-75
2023/09/03 00:14:58;;;;;;;2.42;1.80;;;26.50;50.70;;;;;;5148878;27;45503;-75
2023/09/03 00:17:24;;;;;;;1.13;1.10;;;26.50;50.60;;;;;;5148986;27;45268;-76
2023/09/03 00:19:51;;;;;;;1.30;1.20;;;26.50;50.60;;;;;;5148532;27;45179;-76
2023/09/03 00:22:18;;;;;;;1.92;1.60;;;26.40;50.60;;;;;;5148848;27;47294;-75
2023/09/03 00:24:45;;;;;;;1.83;1.50;;;26.40;50.50;;;;;;5148661;27;45247;-75
2023/09/03 00:27:11;;;;;;;2.72;1.48;;;26.40;50.40;;;;;;5148792;27;45445;-75
2023/09/03 00:29:40;;;;;;;2.05;1.70;;;26.40;50.50;;;;;;5148943;27;45324;-76
2023/09/03 00:32:08;;;;;;;2.15;1.50;;;26.40;50.40;;;;;;5148539;27;46289;-75
2023/09/03 00:34:35;;;;;;;1.67;1.40;;;26.30;50.40;;;;;;5146278;27;45456;-74
2023/09/03 00:37:02;;;;;;;2.03;1.33;;;26.30;50.40;;;;;;5142491;27;45456;-74
2023/09/03 00:39:29;;;;;;;1.67;1.52;;;26.30;50.40;;;;;;5147230;27;45449;-75
2023/09/03 00:41:55;;;;;;;1.67;1.50;;;26.30;50.50;;;;;;5142502;27;45463;-75
2023/09/03 00:44:22;;;;;;;2.40;1.52;;;26.30;50.50;;;;;;5145892;27;45181;-74
2023/09/03 00:46:49;;;;;;;1.92;1.40;;;26.30;50.50;;;;;;5148488;27;45306;-74
2023/09/03 00:49:20;;;;;;;3.00;1.30;;;26.30;50.50;;;;;;5148501;27;45346;-74
2023/09/03 00:51:47;;;;;;;3.15;1.20;;;26.20;50.40;;;;;;5148525;27;46384;-74
2023/09/03 00:54:14;;;;;;;2.17;1.50;;;26.30;50.50;;;;;;5148283;27;45307;-74
2023/09/03 00:56:41;;;;;;;1.25;1.13;;;26.20;50.40;;;;;;5148017;27;45323;-75
2023/09/03 00:59:08;;;;;;;3.03;1.50;;;26.20;50.50;;;;;;5148610;27;45356;-73
2023/09/03 01:01:35;;;;;;;2.80;1.40;;;26.20;50.50;;;;;;5148136;27;46441;-74
2023/09/03 01:04:02;;;;;;;1.55;1.45;;;26.10;50.50;;;;;;5142181;27;45203;-73
2023/09/03 01:06:31;;;;;;;2.05;1.40;;;26.10;50.50;;;;;;5141754;27;45279;-75
2023/09/03 01:08:57;;;;;;;2.88;1.58;;;26.10;50.50;;;;;;5137345;27;45439;-74
2023/09/03 01:11:28;;;;;;;1.67;1.45;;;26.10;50.40;;;;;;5139537;27;46200;-74
2023/09/03 01:14:00;;;;;;;1.50;1.40;;;26.10;50.40;;;;;;5146160;27;45261;-75
2023/09/03 01:16:31;;;;;;;2.13;1.45;;;26.10;50.40;;;;;;5141138;27;45287;-74
2023/09/03 01:18:58;;;;;;;3.60;1.58;;;26.10;50.40;;;;;;5136494;27;45462;-74
2023/09/03 01:21:47;;;;;;;1.70;1.48;;;26.10;50.40;;;;;;5147803;27;45495;-74
2023/09/03 01:24:24;;;;;;;1.80;1.58;;;26.00;50.40;;;;;;5137129;27;45190;-74
2023/09/03 01:26:58;;;;;;;1.98;1.52;;;26.00;50.40;;;;;;5138039;27;45350;-74
2023/09/03 01:29:26;;;;;;;1.85;1.58;;;26.00;50.40;;;;;;5148366;27;45133;-74
2023/09/03 01:31:53;;;;;;;1.85;1.35;;;26.00;50.40;;;;;;5138922;27;48249;-74
2023/09/03 01:34:20;;;;;;;1.63;1.52;;;26.00;50.50;;;;;;5151433;27;45368;-74
2023/09/03 01:36:47;;;;;;;1.60;1.50;;;26.00;50.50;;;;;;5151587;27;45330;-73
2023/09/03 01:39:13;;;;;;;2.25;1.60;;;25.90;50.40;;;;;;5151185;27;45458;-74
2023/09/03 01:41:41;;;;;;;3.00;1.50;;;25.90;50.50;;;;;;5151164;27;46393;-74
2023/09/03 01:44:08;;;;;;;1.50;1.40;;;25.90;50.50;;;;;;5151258;27;45505;-74
2023/09/03 01:46:40;;;;;;;1.63;1.35;;;25.90;50.50;;;;;;5150783;27;45462;-74
2023/09/03 01:49:18;;;;;;;3.42;1.45;;;25.90;50.60;;;;;;5150676;27;45527;-73
2023/09/03 01:51:48;;;;;;;1.50;1.40;;;25.80;50.50;;;;;;5149435;27;46294;-72
2023/09/03 01:54:19;;;;;;;2.58;2.05;;;25.80;50.50;;;;;;5152170;27;45335;-73
2023/09/03 01:56:50;;;;;;;1.38;1.20;;;25.80;50.60;;;;;;5150317;27;45339;-74
2023/09/03 01:59:18;;;;;;;1.45;1.35;;;25.80;50.60;;;;;;5151196;27;45407;-73
2023/09/03 02:01:47;;;;;;;3.22;1.80;;;25.70;50.50;;;;;;5150125;27;45312;-74
2023/09/03 02:04:14;;;;;;;1.27;1.17;;;25.80;50.60;;;;;;5150097;27;45280;-73
2023/09/03 02:06:42;;;;;;;1.27;1.20;;;25.70;50.50;;;;;;5149641;27;45529;-74
2023/09/03 02:09:09;;;;;;;1.80;1.60;;;25.70;50.50;;;;;;5149416;27;45466;-73
2023/09/03 02:11:36;;;;;;;1.65;1.50;;;25.70;50.50;;;;;;5149863;27;46843;-73
2023/09/03 02:14:03;;;;;;;2.10;1.70;;;25.60;50.50;;;;;;5149868;27;45276;-73
2023/09/03 02:16:29;;;;;;;2.13;1.38;;;25.70;50.50;;;;;;5149497;27;45331;-73
2023/09/03 02:18:58;;;;;;;1.63;1.42;;;25.60;50.50;;;;;;5150014;27;45374;-73
2023/09/03 02:21:24;;;;;;;3.47;1.80;;;25.60;50.40;;;;;;5149507;27;46424;-73
2023/09/03 02:23:51;;;;;;;1.67;1.33;;;25.60;51.00;;;;;;5149708;27;45204;-73
2023/09/03 02:26:18;;;;;;;1.55;1.33;;;25.50;50.30;;;;;;5149652;27;45293;-73
2023/09/03 02:28:45;;;;;;;1.42;1.33;;;25.50;50.40;;;;;;5149797;27;45295;-73
2023/09/03 02:31:12;;;;;;;1.42;1.30;;;25.50;50.30;;;;;;5149382;27;45344;-73
2023/09/03 02:33:39;;;;;;;1.52;1.30;;;25.50;51.00;;;;;;5149521;27;45307;-73
2023/09/03 02:36:07;;;;;;;2.70;1.58;;;25.50;50.40;;;;;;5146821;27;45336;-74
2023/09/03 02:38:34;;;;;;;1.52;1.40;;;25.50;50.30;;;;;;5149977;27;45237;-73
2023/09/03 02:41:01;;;;;;;1.38;1.10;;;25.50;50.30;;;;;;5149220;27;46676;-73
2023/09/03 02:43:28;;;;;;;2.05;1.40;;;25.40;50.30;;;;;;5149140;27;45365;-73
2023/09/03 02:45:55;;;;;;;1.40;1.27;;;25.40;50.30;;;;;;5149249;27;45331;-73
2023/09/03 02:48:21;;;;;;;1.88;1.60;;;25.40;50.30;;;;;;5149367;27;45458;-73
2023/09/03 02:50:48;;;;;;;1.85;1.50;;;25.40;50.30;;;;;;5148629;27;45509;-72
2023/09/03 02:53:17;;;;;;;1.63;1.42;;;25.40;50.30;;;;;;5148506;27;45257;-73
2023/09/03 02:55:45;;;;;;;2.58;1.50;;;25.40;50.30;;;;;;5135833;27;1139214;-73
2023/09/03 02:58:11;;;;;;;1.70;1.45;;;25.30;50.30;;;;;;5150094;27;45589;-73
2023/09/03 03:00:38;;;;;;;1.70;1.60;;;25.30;50.30;;;;;;5150519;27;45365;-72
2023/09/03 03:03:05;;;;;;;1.60;1.50;;;25.30;50.40;;;;;;5150207;27;45449;-72
2023/09/03 03:05:32;;;;;;;2.38;1.30;;;25.30;50.40;;;;;;5150476;27;45530;-73
2023/09/03 03:08:02;;;;;;;1.52;1.42;;;25.30;50.50;;;;;;5149772;27;45575;-73
2023/09/03 03:10:30;;;;;;;1.60;1.50;;;25.30;50.50;;;;;;5150085;27;45354;-72
2023/09/03 03:12:57;;;;;;;1.48;1.38;;;25.20;50.40;;;;;;5150307;27;45295;-73
2023/09/03 03:15:24;;;;;;;1.38;1.20;;;25.20;50.40;;;;;;5150315;27;45260;-72
2023/09/03 03:17:51;;;;;;;1.30;1.20;;;25.20;50.40;;;;;;5150145;27;47397;-73
2023/09/03 03:20:18;;;;;;;3.10;1.45;;;25.20;50.40;;;;;;5150160;27;45430;-73
2023/09/03 03:22:45;;;;;;;1.48;1.38;;;25.20;50.40;;;;;;5150023;27;45267;-73
2023/09/03 03:25:11;;;;;;;1.60;1.50;;;25.20;50.40;;;;;;5150043;27;45413;-73
2023/09/03 03:27:40;;;;;;;2.75;1.20;;;25.20;50.40;;;;;;5148945;27;46297;-73
2023/09/03 03:30:07;;;;;;;1.95;1.40;;;25.10;50.30;;;;;;5150006;27;45315;-73
2023/09/03 03:32:34;;;;;;;1.60;1.25;;;25.10;50.30;;;;;;5149955;27;45288;-73
2023/09/03 03:35:01;;;;;;;1.50;1.40;;;25.10;50.30;;;;;;5149803;27;45474;-73
2023/09/03 03:37:28;;;;;;;1.50;1.40;;;25.10;50.30;;;;;;5148851;27;47285;-73
2023/09/03 03:39:55;;;;;;;2.05;1.50;;;25.10;50.30;;;;;;5149289;27;45248;-73
2023/09/03 03:42:22;;;;;;;1.40;1.30;;;25.10;50.40;;;;;;5149782;27;45268;-73
2023/09/03 03:44:50;;;;;;;1.45;1.35;;;25.10;50.40;;;;;;5149835;27;45427;-73
2023/09/03 03:47:17;;;;;;;1.33;1.23;;;25.00;50.40;;;;;;5149058;27;45484;-73
2023/09/03 03:49:43;;;;;;;1.73;1.40;;;25.00;50.30;;;;;;5149425;27;45265;-73
2023/09/03 03:52:10;;;;;;;1.25;1.15;;;25.00;50.30;;;;;;5149261;27;45161;-73
2023/09/03 03:54:37;;;;;;;1.95;1.48;;;25.00;50.40;;;;;;5149767;27;45520;-73
2023/09/03 03:57:04;;;;;;;2.03;1.30;;;25.00;50.40;;;;;;5148919;27;46325;-73
2023/09/03 03:59:32;;;;;;;1.77;1.20;;;25.00;50.50;;;;;;5149224;27;45362;-73
2023/09/03 04:02:06;;;;;;;1.67;1.50;;;25.00;50.50;;;;;;5149235;27;45331;-73
2023/09/03 04:04:33;;;;;;;1.60;1.50;;;24.90;50.40;;;;;;5149606;27;45359;-73
2023/09/03 04:07:00;;;;;;;1.67;1.58;;;24.90;50.40;;;;;;5148854;27;46457;-73
2023/09/03 04:09:26;;;;;;;2.03;1.73;;;24.90;50.50;;;;;;5149121;27;45322;-73
2023/09/03 04:11:53;;;;;;;2.78;1.30;;;24.90;50.50;;;;;;5149186;27;45297;-73
2023/09/03 04:14:20;;;;;;;1.17;1.08;;;24.90;50.50;;;;;;5148993;27;45297;-73
2023/09/03 04:16:47;;;;;;;2.03;1.85;;;24.90;50.50;;;;;;5149306;27;46410;-73
2023/09/03 04:19:15;;;;;;;1.70;1.60;;;24.80;50.50;;;;;;5149162;27;45347;-73
2023/09/03 04:21:42;;;;;;;1.42;1.33;;;24.80;50.50;;;;;;5149117;27;45311;-73
2023/09/03 04:24:09;;;;;;;1.60;1.50;;;24.80;50.40;;;;;;5148355;27;45387;-73
2023/09/03 04:26:37;;;;;;;2.17;1.60;;;24.80;50.40;;;;;;5148762;27;45468;-73
2023/09/03 04:29:05;;;;;;;4.55;1.52;;;24.80;50.40;;;;;;5149169;27;45360;-73
2023/09/03 04:31:35;;;;;;;2.92;1.35;;;24.80;50.50;;;;;;5148903;27;45441;-73
2023/09/03 04:34:02;;;;;;;1.60;1.40;;;24.70;50.40;;;;;;5148915;27;45494;-73
2023/09/03 04:36:30;;;;;;;2.13;1.50;;;24.70;50.40;;;;;;5148341;27;47504;-72
2023/09/03 04:38:57;;;;;;;1.30;1.20;;;24.70;50.40;;;;;;5148520;27;45146;-73
2023/09/03 04:41:24;;;;;;;1.23;1.13;;;24.70;50.40;;;;;;5148856;27;45297;-73
2023/09/03 04:43:51;;;;;;;1.55;1.40;;;24.70;50.50;;;;;;5149252;27;45370;-73
2023/09/03 04:46:17;;;;;;;1.75;1.65;;;24.70;50.50;;;;;;5148617;27;46417;-73
2023/09/03 04:48:44;;;;;;;1.42;1.30;;;24.70;50.50;;;;;;5148610;27;45323;-73
2023/09/03 04:51:11;;;;;;;1.60;1.50;;;24.60;50.50;;;;;;5148629;27;45326;-73
2023/09/03 04:53:39;;;;;;;3.45;1.60;;;24.60;50.50;;;;;;5148946;27;45439;-73
2023/09/03 04:56:11;;;;;;;1.40;1.30;;;24.60;50.50;;;;;;5147900;27;46289;-73
2023/09/03 04:58:38;;;;;;;1.98;1.42;;;24.60;50.50;;;;;;5148299;27;45414;-73
2023/09/03 05:01:13;;;;;;;3.38;1.48;;;24.60;50.50;;;;;;5148379;27;45484;-72
2023/09/03 05:03:40;;;;;;;1.23;1.13;;;24.60;50.60;;;;;;5145816;27;45347;-72
2023/09/03 05:06:06;;;;;;;2.25;1.50;;;24.50;51.10;;;;;;5148879;27;45461;-73
2023/09/03 05:08:33;;;;;;;1.13;1.13;;;24.50;50.50;;;;;;5148304;27;45318;-73
2023/09/03 05:11:11;;;;;;;1.83;1.40;;;24.50;50.50;;;;;;5148310;27;45186;-72
2023/09/03 05:13:38;;;;;;;1.30;1.20;;;24.50;50.50;;;;;;5148473;27;45607;-73
2023/09/03 05:16:05;;;;;;;1.73;1.15;;;24.50;50.50;;;;;;5147363;27;46305;-73
2023/09/03 05:18:32;;;;;;;1.40;1.30;;;24.50;50.50;;;;;;5148282;27;45632;-73
2023/09/03 05:20:59;;;;;;;1.33;1.23;;;24.50;50.50;;;;;;5148139;27;45318;-73
2023/09/03 05:23:26;;;;;;;1.30;1.20;;;24.50;50.50;;;;;;5148269;27;45541;-73
2023/09/03 05:25:53;;;;;;;1.42;1.33;;;24.50;50.50;;;;;;5147996;27;45365;-73
2023/09/03 05:28:21;;;;;;;1.30;1.20;;;24.50;50.60;;;;;;5147736;27;45405;-72
2023/09/03 05:30:49;;;;;;;1.70;1.60;;;24.50;50.60;;;;;;5148300;27;45304;-73
2023/09/03 05:33:16;;;;;;;1.40;1.30;;;24.50;50.60;;;;;;5148443;27;45498;-73
2023/09/03 05:35:43;;;;;;;1.55;1.40;;;24.50;50.60;;;;;;5147914;27;45389;-73
2023/09/03 05:38:10;;;;;;;1.83;1.50;;;24.50;50.60;;;;;;5147730;27;45469;-73
2023/09/03 05:40:37;;;;;;;1.58;1.48;;;24.50;50.60;;;;;;5148285;27;45387;-73
2023/09/03 05:43:04;;;;;;;1.50;1.38;;;24.40;50.50;;;;;;5148047;27;45415;-72
2023/09/03 05:45:32;;;;;;;1.58;1.45;;;24.50;50.60;;;;;;5147900;27;45521;-74
2023/09/03 05:47:59;;;;;;;1.63;1.40;;;24.50;50.60;;;;;;5147506;27;45401;-73
2023/09/03 05:50:26;;;;;;;1.63;1.20;;;24.40;50.50;;;;;;5149097;27;45329;-73
2023/09/03 05:52:53;;;;;;;1.83;1.35;;;24.40;50.60;;;;;;5151563;27;45393;-73
2023/09/03 05:55:20;;;;;;;1.48;1.38;;;24.40;50.60;;;;;;5151187;27;46647;-73
2023/09/03 05:57:47;;;;;;;1.30;1.20;;;24.40;50.60;;;;;;5150911;27;45315;-73
2023/09/03 06:00:15;;;;;;;1.30;1.20;;;24.40;50.60;;;;;;5150721;27;45415;-71
2023/09/03 06:02:43;;;;;;;1.58;1.30;;;24.40;50.60;;;;;;5150833;27;45618;-73
2023/09/03 06:05:11;;;;;;;1.40;1.30;;;24.40;50.60;;;;;;5151000;27;46378;-73
2023/09/03 06:07:38;;;;;;;1.95;1.40;;;24.40;50.60;;;;;;5151181;27;45334;-73
2023/09/03 06:10:06;;;;;;;1.23;1.15;;;24.40;50.60;;;;;;5151125;27;45366;-73
2023/09/03 06:12:33;;;;;;;1.40;1.30;;;24.40;50.60;;;;;;5151634;27;45382;-73
2023/09/03 06:14:59;;;;;;;2.00;1.52;;;24.30;50.60;;;;;;5150919;27;46278;-73
2023/09/03 06:17:26;;;;;;;1.25;1.02;;;24.30;50.60;;;;;;5150836;27;45272;-73
2023/09/03 06:19:55;;;;;;;1.40;1.30;;;24.30;50.60;;;;;;5151075;27;45322;-74
2023/09/03 06:22:22;;;;;;;1.40;1.30;;;24.30;50.60;;;;;;5151048;27;45401;-73
2023/09/03 06:24:48;;;;;;;1.30;1.20;;;24.30;50.60;;;;;;5150720;27;46365;-73
2023/09/03 06:27:15;;;;;;;2.17;1.30;;;24.30;50.60;;;;;;5150613;27;45390;-74
2023/09/03 06:29:42;;;;;;;1.27;1.17;;;24.40;50.70;;;;;;5151200;27;45272;-73
2023/09/03 06:32:09;;;;;;;1.92;1.40;;;24.30;50.60;;;;;;5150964;27;45636;-73
2023/09/03 06:34:36;;;;;;;1.50;1.40;;;24.30;50.70;;;;;;5150458;27;45536;-73
2023/09/03 06:37:07;;;;;;;2.38;1.27;;;24.30;50.60;;;;;;5150431;27;45436;-73
2023/09/03 06:39:34;;;;;;;1.55;1.15;;;24.30;50.60;;;;;;5150859;27;45323;-73
2023/09/03 06:42:00;;;;;;;1.45;1.35;;;24.30;50.60;;;;;;5151044;27;45366;-73
2023/09/03 06:44:27;;;;;;;1.58;1.35;;;24.40;50.70;;;;;;5149591;27;46394;-73
2023/09/03 06:46:54;;;;;;;1.17;1.10;;;24.30;50.60;;;;;;5150294;27;45399;-73
2023/09/03 06:49:21;;;;;;;1.45;1.35;;;24.40;51.20;;;;;;5150315;27;45327;-73
2023/09/03 06:51:48;;;;;;;1.45;1.17;;;24.40;50.60;;;;;;5151077;27;45458;-73
2023/09/03 06:54:16;;;;;;;1.33;1.23;;;24.40;50.70;;;;;;5150420;27;45477;-72
2023/09/03 06:56:43;;;;;;;1.35;1.23;;;24.40;50.70;;;;;;5150064;27;45355;-73
2023/09/03 06:59:09;;;;;;;1.13;1.13;;;24.40;50.70;;;;;;5150910;27;45388;-73
2023/09/03 07:01:36;;;;;;;1.40;1.30;;;24.40;50.80;;;;;;5149092;27;45173;-73
2023/09/03 07:04:03;;;;;;;1.20;1.10;;;24.40;50.70;;;;;;5150046;27;46385;-73
2023/09/03 07:06:30;;;;;;;1.50;1.40;;;24.40;50.70;;;;;;5150036;27;45267;-73
2023/09/03 07:08:57;;;;;;;1.10;1.00;;;24.50;50.70;;;;;;5150226;27;45346;-73
2023/09/03 07:11:25;;;;;;;1.63;1.38;;;24.50;50.70;;;;;;5150473;27;45316;-73
2023/09/03 07:13:52;;;;;;;1.63;1.27;;;24.50;51.40;;;;;;5150055;27;45290;-74
2023/09/03 07:16:19;;;;;;;2.75;1.15;;;24.50;50.80;;;;;;5149962;27;45256;-73
2023/09/03 07:18:46;;;;;;;2.17;1.35;;;24.50;50.70;;;;;;5149869;27;45434;-73
2023/09/03 07:21:13;;;;;;;1.65;1.35;;;24.50;50.70;;;;;;5149973;27;45380;-73
2023/09/03 07:23:39;;;;;;;1.70;1.58;;;24.50;50.80;;;;;;5149603;27;45293;-73
2023/09/03 07:26:08;;;;;;;1.50;1.02;;;24.50;50.80;;;;;;5149838;27;45173;-73
2023/09/03 07:28:37;;;;;;;1.58;1.48;;;24.50;50.80;;;;;;5149982;27;45404;-72
2023/09/03 07:31:04;;;;;;;1.25;1.15;;;24.50;50.80;;;;;;5149408;27;45351;-72
2023/09/03 07:33:32;;;;;;;2.78;1.35;;;24.50;50.80;;;;;;5149269;27;45305;-73
2023/09/03 07:35:59;;;;;;;1.20;1.10;;;24.60;50.80;;;;;;5149689;27;45399;-75
2023/09/03 07:38:27;;;;;;;1.23;1.13;;;24.60;50.90;;;;;;5149418;27;45635;-73
2023/09/03 07:40:54;;;;;;;1.60;1.20;;;24.60;50.90;;;;;;5149816;27;45418;-75
2023/09/03 07:43:20;;;;;;;3.20;1.27;;;24.60;51.30;;;;;;5149396;27;47284;-73
2023/09/03 07:45:49;;;;;;;1.50;1.40;;;24.60;50.80;;;;;;5149454;27;45254;-75
2023/09/03 07:48:15;;;;;;;1.30;1.20;;;24.60;50.80;;;;;;5149366;27;45316;-73
2023/09/03 07:50:44;;;;;;;1.40;1.30;;;24.60;51.40;;;;;;5149603;27;45360;-76
2023/09/03 07:53:11;;;;;;;1.50;1.10;;;24.70;51.40;;;;;;5149417;27;45349;-76
2023/09/03 07:55:37;;;;;;;2.47;1.20;;;24.70;50.70;;;;;;5141733;27;45215;-78
2023/09/03 07:58:05;;;;;;;1.48;1.38;;;24.70;50.70;;;;;;5149746;27;45375;-77
2023/09/03 08:00:31;;;;;;;4.15;1.55;;;24.70;50.70;;;;;;5149789;27;45378;-73
2023/09/03 08:03:00;;;;;;;9.13;1.95;;;24.80;50.80;;;;;;5149139;27;45370;-75
2023/09/03 08:05:26;;;;;;;1.52;1.42;;;24.80;50.80;;;;;;5149453;27;45261;-73
2023/09/03 08:07:53;;;;;;;2.45;1.67;;;24.80;52.10;;;;;;5148529;27;45405;-74
2023/09/03 08:10:20;;;;;;;3.38;1.75;;;24.80;53.00;;;;;;5149844;27;45347;-71
2023/09/03 08:12:47;;;;;;;4.47;1.52;;;24.80;53.40;;;;;;5148359;27;45474;-72
2023/09/03 08:15:14;;;;;;;4.97;2.25;;;24.80;53.40;;;;;;5149024;27;45440;-72
2023/09/03 08:17:41;;;;;;;2.40;1.73;;;24.90;54.00;;;;;;5149516;27;45276;-72
2023/09/03 08:20:12;;;;;;;1.50;1.38;;;25.00;53.70;;;;;;5134952;27;45319;-75
2023/09/03 08:22:38;;;;;;;3.35;1.90;;;25.00;54.00;;;;;;5127952;27;46486;-75
2023/09/03 08:25:06;;;;;;;2.47;1.67;;;25.00;54.20;;;;;;5127832;27;45384;-75
2023/09/03 08:27:33;;;;;;;4.93;1.88;;;25.10;54.30;;;;;;5127782;27;45338;-73
2023/09/03 08:30:00;;;;;;;2.08;1.55;;;25.10;54.20;;;;;;5128785;27;45252;-77
2023/09/03 08:32:29;;;;;;;159.07;115.93;;;25.20;54.10;;;;;;5127636;27;47344;-72
2023/09/03 08:34:56;;;;;;;100.07;72.22;;;25.20;54.90;;;;;;5127879;27;45395;-73
2023/09/03 08:37:26;;;;;;;37.45;28.48;;;25.20;54.70;;;;;;5127689;27;45264;-73
2023/09/03 08:39:53;;;;;;;39.53;29.48;;;25.30;55.10;;;;;;5132100;27;45397;-75
2023/09/03 08:42:20;;;;;;;38.60;30.73;;;25.30;54.90;;;;;;5147585;27;45458;-75
2023/09/03 08:44:47;;;;;;;40.30;28.58;;;25.40;55.20;;;;;;5146461;27;45301;-75
2023/09/03 08:47:14;;;;;;;33.58;25.23;;;25.40;55.10;;;;;;5148589;27;45384;-73
2023/09/03 08:49:41;;;;;;;23.33;18.20;;;25.50;55.20;;;;;;5134576;27;45280;-74
2023/09/03 08:52:08;;;;;;;19.08;12.75;;;25.60;55.30;;;;;;5135271;27;46699;-76
2023/09/03 08:54:36;;;;;;;17.80;14.35;;;25.60;55.30;;;;;;5146927;27;45574;-76
2023/09/03 08:57:04;;;;;;;19.67;13.85;;;25.70;54.90;;;;;;5138536;27;45221;-72
2023/09/03 08:59:31;;;;;;;12.68;10.07;;;25.80;54.60;;;;;;5144469;27;45316;-71
2023/09/03 09:01:58;;;;;;;16.35;11.75;;;25.80;54.70;;;;;;5125593;27;46410;-72
2023/09/03 09:04:26;;;;;;;10.80;8.30;;;25.90;54.00;;;;;;5141145;27;45588;-74
2023/09/03 09:06:53;;;;;;;12.02;9.02;;;26.00;54.70;;;;;;5125668;27;45357;-74
2023/09/03 09:09:19;;;;;;;9.05;6.88;;;26.00;54.40;;;;;;5147575;27;45236;-71
2023/09/03 09:11:50;;;;;;;10.70;7.65;;;26.00;54.70;;;;;;5132796;27;46403;-74
2023/09/03 09:14:20;;;;;;;8.40;6.25;;;26.00;54.80;;;;;;5145757;27;45366;-74
2023/09/03 09:16:47;;;;;;;5.78;3.45;;;26.10;54.60;;;;;;5137867;27;45466;-76
2023/09/03 09:19:18;;;;;;;5.70;3.15;;;26.10;55.00;;;;;;5148732;27;45558;-77
2023/09/03 09:21:45;;;;;;;4.32;3.63;;;26.10;55.60;;;;;;5163622;27;46440;-74
2023/09/03 09:24:12;;;;;;;13.90;4.50;;;26.20;55.60;;;;;;5168770;27;45319;-72
2023/09/03 09:26:39;;;;;;;7.00;3.72;;;26.20;55.10;;;;;;5167439;27;45339;-76
2023/09/03 09:29:07;;;;;;;4.97;3.53;;;26.20;55.30;;;;;;5143589;27;45577;-74
2023/09/03 09:31:39;;;;;;;8.55;3.13;;;26.30;55.00;;;;;;5131921;27;45303;-71
2023/09/03 09:34:10;;;;;;;7.60;3.40;;;26.30;54.90;;;;;;5157081;27;45485;-73
2023/09/03 09:36:37;;;;;;;3.92;3.17;;;26.30;55.10;;;;;;5164668;27;45634;-72
2023/09/03 09:39:08;;;;;;;6.70;3.58;;;26.50;55.10;;;;;;5156859;27;45281;-75
2023/09/03 09:41:37;;;;;;;4.13;2.67;;;26.50;55.10;;;;;;5146190;27;45677;-75
2023/09/03 09:44:10;;;;;;;4.00;2.72;;;26.60;55.00;;;;;;5150198;27;45332;-72
2023/09/03 09:46:38;;;;;;;3.85;2.65;;;26.60;54.50;;;;;;5165542;27;45263;-70
2023/09/03 09:49:06;;;;;;;6.13;2.70;;;26.70;54.20;;;;;;5150574;27;45470;-74
2023/09/03 09:51:33;;;;;;;4.88;2.38;;;26.70;54.10;;;;;;5161326;27;46924;-72
2023/09/03 09:54:00;;;;;;;2.75;2.50;;;26.70;54.20;;;;;;5169181;27;45274;-72
2023/09/03 09:56:28;;;;;;;2.97;2.40;;;26.70;54.30;;;;;;5144360;27;45299;-72
2023/09/03 09:58:56;;;;;;;4.55;2.08;;;26.60;54.10;;;;;;5150500;27;45448;-75
2023/09/03 10:01:26;;;;;;;3.35;2.20;;;26.70;53.90;;;;;;5148444;27;47717;-72
2023/09/03 10:03:52;;;;;;;3.80;2.22;;;26.60;53.80;;;;;;5149552;27;45290;-75
2023/09/03 10:06:22;;;;;;;4.30;2.20;;;26.70;53.90;;;;;;5146971;27;45528;-74
2023/09/03 10:08:51;;;;;;;2.17;1.95;;;26.70;53.90;;;;;;5150510;27;45438;-74
2023/09/03 10:11:17;;;;;;;3.83;2.15;;;26.70;54.20;;;;;;5150707;27;46346;-74
2023/09/03 10:13:44;;;;;;;3.03;1.88;;;26.70;54.10;;;;;;5149217;27;46317;-73
2023/09/03 10:16:11;;;;;;;3.55;2.20;;;26.70;54.40;;;;;;5149156;27;46030;-73
2023/09/03 10:18:44;;;;;;;2.40;1.90;;;26.70;54.30;;;;;;5146915;27;45449;-73
2023/09/03 10:21:11;;;;;;;3.13;2.10;;;26.70;54.10;;;;;;5149169;27;46397;-74
2023/09/03 10:23:41;;;;;;;4.57;2.38;;;26.70;54.30;;;;;;5149681;27;45453;-73
2023/09/03 10:26:08;;;;;;;2.28;1.90;;;26.70;54.50;;;;;;5150831;27;45434;-74
2023/09/03 10:28:37;;;;;;;3.72;1.92;;;26.70;54.00;;;;;;5150555;27;45492;-73
2023/09/03 10:31:04;;;;;;;3.22;2.20;;;26.70;54.00;;;;;;5147628;27;45614;-73
2023/09/03 10:33:33;;;;;;;4.72;2.20;;;26.80;54.40;;;;;;5150683;27;45339;-73
2023/09/03 10:36:20;;;;;;;2.40;2.00;;;26.80;54.30;;;;;;5150366;27;45492;-73
2023/09/03 10:38:47;;;;;;;1.70;1.60;;;26.80;54.00;;;;;;5150699;27;45307;-73
2023/09/03 10:41:20;;;;;;;2.42;1.90;;;26.90;54.00;;;;;;5150196;27;45429;-73
2023/09/03 10:43:48;;;;;;;3.08;2.08;;;26.90;54.10;;;;;;5150225;27;45329;-73
2023/09/03 10:46:14;;;;;;;2.38;1.95;;;26.90;53.90;;;;;;5150523;27;45311;-73
2023/09/03 10:48:41;;;;;;;2.78;1.65;;;27.00;54.40;;;;;;5150614;27;45543;-73
2023/09/03 10:51:08;;;;;;;3.13;1.80;;;27.00;54.60;;;;;;5149916;27;45462;-74
2023/09/03 10:53:37;;;;;;;2.35;1.98;;;27.00;53.90;;;;;;5149190;27;45601;-71
2023/09/03 10:56:11;;;;;;;2.45;1.70;;;27.10;54.10;;;;;;5149637;27;45475;-70
2023/09/03 10:58:53;;;;;;;3.20;1.88;;;27.10;54.30;;;;;;5150067;27;45346;-72
2023/09/03 11:01:22;;;;;;;2.03;1.90;;;27.20;54.40;;;;;;5149958;27;48080;-72
2023/09/03 11:03:49;;;;;;;3.28;1.88;;;27.20;54.20;;;;;;5141230;27;45367;-72
2023/09/03 11:06:18;;;;;;;2.58;1.75;;;27.20;54.30;;;;;;5150106;27;45614;-72
2023/09/03 11:08:46;;;;;;;2.35;1.85;;;27.30;54.00;;;;;;5149191;27;45441;-72
2023/09/03 11:11:18;;;;;;;3.85;2.00;;;27.30;54.20;;;;;;5149083;27;45253;-72
2023/09/03 11:13:49;;;;;;;2.05;1.85;;;27.30;54.30;;;;;;5149962;27;45434;-72
2023/09/03 11:16:16;;;;;;;2.70;1.95;;;27.30;54.10;;;;;;5148467;27;45440;-72
2023/09/03 11:18:48;;;;;;;2.05;1.95;;;27.40;53.80;;;;;;5149707;27;45268;-72
2023/09/03 11:21:14;;;;;;;2.88;2.00;;;27.50;54.00;;;;;;5149602;27;45249;-72
2023/09/03 11:23:41;;;;;;;2.25;2.05;;;27.50;53.90;;;;;;5149808;27;45236;-73
2023/09/03 11:26:14;;;;;;;2.83;2.08;;;27.60;54.40;;;;;;5149769;27;45463;-71
2023/09/03 11:28:45;;;;;;;3.53;1.60;;;27.50;54.10;;;;;;5150105;27;45200;-73
2023/09/03 11:31:12;;;;;;;2.40;2.00;;;27.60;54.10;;;;;;5149879;27;46702;-72
2023/09/03 11:33:39;;;;;;;2.67;1.90;;;27.60;54.10;;;;;;5149920;27;45251;-72
2023/09/03 11:36:07;;;;;;;2.45;1.67;;;27.60;54.10;;;;;;5149839;27;45450;-72
2023/09/03 11:38:34;;;;;;;3.60;2.15;;;27.70;53.90;;;;;;5149723;27;45443;-73
2023/09/03 11:41:01;;;;;;;2.15;1.98;;;27.70;54.10;;;;;;5149691;27;46378;-72
2023/09/03 11:43:31;;;;;;;4.25;1.90;;;27.70;54.00;;;;;;5149560;27;45275;-72
2023/09/03 11:45:57;;;;;;;3.50;1.90;;;27.70;54.00;;;;;;5141243;27;45453;-72
2023/09/03 11:48:25;;;;;;;4.43;1.75;;;27.80;54.10;;;;;;5143591;27;45439;-72
2023/09/03 11:50:52;;;;;;;5.65;2.10;;;27.80;53.80;;;;;;5153746;27;45338;-72
2023/09/03 11:53:19;;;;;;;4.60;2.47;;;27.90;53.80;;;;;;5157940;27;45329;-73
2023/09/03 11:55:47;;;;;;;5.13;2.25;;;27.90;53.80;;;;;;5149215;27;45254;-73
2023/09/03 11:58:15;;;;;;;3.10;1.77;;;28.00;53.80;;;;;;5149581;27;45323;-70
2023/09/03 12:00:44;;;;;;;4.82;2.00;;;28.00;53.80;;;;;;5148922;27;45339;-72
2023/09/03 12:03:11;;;;;;;2.08;1.80;;;28.10;53.90;;;;;;5148508;27;45310;-72
2023/09/03 12:05:38;;;;;;;4.47;1.92;;;28.10;53.80;;;;;;5132148;27;45286;-73
2023/09/03 12:08:06;;;;;;;1.65;1.55;;;28.20;53.70;;;;;;5148084;27;45458;-71
2023/09/03 12:10:33;;;;;;;3.70;1.95;;;28.30;53.40;;;;;;5150042;27;46609;-74
2023/09/03 12:13:01;;;;;;;3.08;2.22;;;28.40;53.50;;;;;;5150600;27;45355;-73
2023/09/03 12:15:29;;;;;;;2.70;1.80;;;28.40;53.70;;;;;;5148785;27;45408;-69
2023/09/03 12:18:08;;;;;;;2.90;1.90;;;28.40;53.60;;;;;;5145567;27;45663;-73
2023/09/03 12:20:36;;;;;;;1.88;1.70;;;28.40;53.80;;;;;;5145556;27;45407;-72
2023/09/03 12:23:10;;;;;;;2.10;2.00;;;28.50;53.40;;;;;;5149425;27;45500;-71
2023/09/03 12:25:37;;;;;;;3.92;2.20;;;28.60;53.50;;;;;;5148613;27;45406;-72
2023/09/03 12:28:05;;;;;;;5.45;1.80;;;28.60;53.80;;;;;;5155241;27;45257;-73
2023/09/03 12:30:59;;;;;;;3.25;2.10;;;28.60;53.90;;;;;;5139634;27;47396;-71
2023/09/03 12:33:28;;;;;;;2.83;2.20;;;28.70;54.10;;;;;;5138553;27;45373;-72
2023/09/03 12:36:05;;;;;;;2.20;2.00;;;28.80;54.20;;;;;;5141219;27;45346;-72
2023/09/03 12:38:32;;;;;;;3.10;2.08;;;28.80;54.00;;;;;;5143582;27;45409;-71
2023/09/03 12:40:59;;;;;;;5.22;2.25;;;28.90;54.10;;;;;;5150508;27;45345;-73
2023/09/03 12:43:26;;;;;;;2.05;1.85;;;28.90;54.00;;;;;;5131569;27;45348;-72
2023/09/03 12:45:53;;;;;;;3.35;2.13;;;28.90;54.00;;;;;;5148124;27;45598;-71
2023/09/03 12:48:20;;;;;;;5.35;2.30;;;29.00;53.90;;;;;;5146646;27;45475;-72